createdAt,value
2023-04-30T00:03:36.472Z,2.80
2023-04-30T00:08:38.827Z,3.53
2023-04-30T00:13:42.531Z,3.50
2023-04-30T00:18:44.743Z,3.28
2023-04-30T00:23:46.962Z,3.42
2023-04-30T00:28:49.185Z,3.45
2023-04-30T00:33:51.439Z,3.60
2023-04-30T00:38:53.578Z,3.83
2023-04-30T00:43:55.739Z,3.72
2023-04-30T00:48:58.007Z,4.10
2023-04-30T00:54:03.554Z,4.05
2023-04-30T00:59:05.859Z,4.07
2023-04-30T01:04:08.056Z,3.67
2023-04-30T01:09:10.876Z,3.60
2023-04-30T01:14:24.364Z,3.72
2023-04-30T01:19:46.349Z,3.53
2023-04-30T01:25:22.701Z,3.95
2023-04-30T01:30:25.906Z,3.58
2023-04-30T01:35:58.583Z,3.97
2023-04-30T01:41:32.634Z,3.75
2023-04-30T01:46:35.466Z,4.05
2023-04-30T01:51:43.048Z,4.05
2023-04-30T01:56:57.080Z,3.53
2023-04-30T02:01:59.505Z,4.50
2023-04-30T02:07:01.951Z,4.55
2023-04-30T02:12:04.792Z,4.15
2023-04-30T02:17:06.991Z,4.57
2023-04-30T02:22:09.190Z,4.40
2023-04-30T02:27:11.392Z,4.55
2023-04-30T02:32:13.631Z,4.40
2023-04-30T02:37:16.555Z,4.53
2023-04-30T02:42:18.784Z,4.75
2023-04-30T02:47:21.070Z,4.07
2023-04-30T02:52:23.231Z,3.90
2023-04-30T02:57:25.419Z,4.53
2023-04-30T03:02:27.653Z,5.07
2023-04-30T03:07:29.900Z,5.53
2023-04-30T03:12:32.062Z,4.85
2023-04-30T03:17:34.359Z,4.65
2023-04-30T03:22:36.630Z,5.32
2023-04-30T03:27:39.565Z,5.40
2023-04-30T03:32:54.501Z,4.53
2023-04-30T03:37:56.805Z,5.20
2023-04-30T03:42:58.969Z,4.95
2023-04-30T03:48:01.180Z,6.05
2023-04-30T03:53:03.698Z,5.45
2023-04-30T03:58:06.042Z,5.53
2023-04-30T04:03:08.468Z,6.22
2023-04-30T04:08:11.077Z,5.70
2023-04-30T04:13:13.500Z,6.60
2023-04-30T04:18:15.718Z,5.30
2023-04-30T04:23:17.880Z,5.75
2023-04-30T04:28:20.105Z,5.68
2023-04-30T04:33:22.272Z,6.03
2023-04-30T04:38:24.743Z,6.30
2023-04-30T04:43:26.958Z,6.03
2023-04-30T04:48:29.056Z,6.25
2023-04-30T04:53:32.915Z,6.88
2023-04-30T04:58:36.436Z,6.07
2023-04-30T05:03:39.020Z,5.88
2023-04-30T05:08:41.246Z,5.05
2023-04-30T05:13:43.358Z,5.90
2023-04-30T05:18:45.590Z,5.40
2023-04-30T05:23:47.850Z,6.00
2023-04-30T05:28:50.034Z,5.60
2023-04-30T05:33:52.328Z,5.30
2023-04-30T05:38:54.628Z,5.80
2023-04-30T05:43:56.895Z,4.95
2023-04-30T05:48:59.137Z,5.85
2023-04-30T05:54:01.241Z,5.30
2023-04-30T05:59:03.425Z,5.47
2023-04-30T06:04:05.652Z,5.45
2023-04-30T06:09:07.960Z,4.25
2023-04-30T06:14:11.004Z,3.97
2023-04-30T06:19:13.360Z,4.68
2023-04-30T06:24:15.759Z,4.85
2023-04-30T06:29:19.530Z,4.22
2023-04-30T06:34:21.694Z,5.40
2023-04-30T06:39:23.906Z,6.25
2023-04-30T06:44:26.086Z,5.15
2023-04-30T06:49:28.395Z,5.97
2023-04-30T06:54:30.789Z,4.90
2023-04-30T06:59:33.127Z,4.53
2023-04-30T07:04:35.341Z,4.88
2023-04-30T07:09:37.935Z,4.05
2023-04-30T07:14:40.697Z,4.97
2023-04-30T07:19:43.028Z,4.93
2023-04-30T07:24:45.144Z,3.60
2023-04-30T07:29:47.237Z,3.53
2023-04-30T07:34:49.517Z,4.20
2023-04-30T07:39:51.781Z,3.72
2023-04-30T07:44:53.950Z,4.20
2023-04-30T07:49:56.405Z,4.88
2023-04-30T07:54:58.705Z,3.58
2023-04-30T08:00:01.426Z,3.50
2023-04-30T08:05:04.414Z,3.85
2023-04-30T08:10:07.096Z,3.30
2023-04-30T08:15:09.313Z,3.38
2023-04-30T08:20:11.800Z,3.20
2023-04-30T08:25:14.243Z,3.10
2023-04-30T08:30:16.782Z,3.03
2023-04-30T08:35:19.115Z,3.40
2023-04-30T08:40:23.514Z,2.90
2023-04-30T08:45:28.306Z,3.30
2023-04-30T08:50:31.948Z,2.55
2023-04-30T08:55:35.127Z,2.63
2023-04-30T09:00:38.932Z,3.53
2023-04-30T09:05:42.145Z,2.83
2023-04-30T09:10:44.452Z,3.72
2023-04-30T09:15:52.584Z,2.60
2023-04-30T09:21:01.923Z,12.40
2023-04-30T09:26:04.622Z,4.30
2023-04-30T09:31:20.812Z,3.25
2023-04-30T09:36:23.146Z,2.78
2023-04-30T09:41:29.537Z,3.00
2023-04-30T09:46:33.931Z,3.05
2023-04-30T09:51:37.556Z,3.40
2023-04-30T09:56:40.106Z,3.38
2023-04-30T10:01:42.684Z,3.08
2023-04-30T10:06:45.653Z,2.75
2023-04-30T10:11:48.118Z,3.35
2023-04-30T10:17:06.381Z,3.75
2023-04-30T10:22:09.792Z,2.50
2023-04-30T10:27:12.686Z,3.97
2023-04-30T10:32:16.062Z,2.30
2023-04-30T10:37:31.713Z,2.88
2023-04-30T10:42:36.355Z,3.05
2023-04-30T10:47:39.712Z,3.08
2023-04-30T10:52:41.965Z,2.60
2023-04-30T10:57:46.907Z,3.03
2023-04-30T11:02:50.146Z,3.47
2023-04-30T11:07:57.703Z,2.90
2023-04-30T11:13:05.285Z,2.60
2023-04-30T11:18:08.869Z,3.20
2023-04-30T11:23:19.627Z,2.35
2023-04-30T11:28:26.698Z,2.70
2023-04-30T11:33:31.030Z,2.55
2023-04-30T11:38:37.490Z,2.65
2023-04-30T11:43:39.621Z,2.42
2023-04-30T11:48:44.313Z,2.88
2023-04-30T11:53:48.136Z,2.55
2023-04-30T11:58:52.286Z,2.67
2023-04-30T12:03:57.859Z,2.25
2023-04-30T12:09:02.091Z,2.10
2023-04-30T12:14:05.620Z,2.03
2023-04-30T12:19:07.989Z,2.20
2023-04-30T12:24:12.156Z,2.20
2023-04-30T12:29:18.709Z,2.10
2023-04-30T12:34:20.992Z,2.00
2023-04-30T12:39:23.190Z,1.90
2023-04-30T12:44:27.904Z,2.08
2023-04-30T12:49:34.051Z,1.88
2023-04-30T12:54:37.368Z,2.15
2023-04-30T13:00:11.969Z,2.20
2023-04-30T13:05:15.891Z,1.85
2023-04-30T13:10:18.955Z,2.08
2023-04-30T13:15:21.193Z,2.42
2023-04-30T13:20:25.245Z,2.28
2023-04-30T13:25:27.526Z,2.53
2023-04-30T13:30:30.188Z,1.92
2023-04-30T13:35:32.386Z,2.63
2023-04-30T13:40:34.562Z,1.73
2023-04-30T13:45:36.764Z,1.80
2023-04-30T13:50:38.929Z,2.08
2023-04-30T13:55:41.339Z,1.98
2023-04-30T14:00:43.918Z,2.00
2023-04-30T14:05:46.995Z,2.60
2023-04-30T14:10:49.217Z,2.42
2023-04-30T14:15:52.194Z,2.20
2023-04-30T14:20:54.356Z,2.00
2023-04-30T14:25:56.793Z,1.85
2023-04-30T14:30:58.963Z,2.10
2023-04-30T14:36:01.584Z,2.00
2023-04-30T14:41:03.745Z,2.58
2023-04-30T14:46:06.034Z,2.22
2023-04-30T14:51:08.635Z,2.05
2023-04-30T14:56:10.911Z,2.17
2023-04-30T15:01:13.138Z,2.10
2023-04-30T15:06:15.869Z,1.90
2023-04-30T15:11:18.515Z,2.30
2023-04-30T15:16:20.764Z,2.30
2023-04-30T15:21:23.204Z,1.83
2023-04-30T15:26:26.296Z,2.03
2023-04-30T15:31:28.607Z,2.30
2023-04-30T15:36:32.284Z,2.35
2023-04-30T15:41:34.498Z,2.00
2023-04-30T15:46:36.808Z,1.90
2023-04-30T15:51:39.058Z,2.13
2023-04-30T15:56:41.607Z,2.60
2023-04-30T16:01:44.138Z,1.80
2023-04-30T16:06:46.996Z,1.95
2023-04-30T16:11:49.699Z,1.83
2023-04-30T16:16:52.568Z,1.95
2023-04-30T16:21:54.990Z,2.13
2023-04-30T16:26:57.919Z,2.60
2023-04-30T16:32:00.240Z,2.33
2023-04-30T16:37:02.518Z,2.47
2023-04-30T16:42:04.732Z,2.58
2023-04-30T16:47:07.288Z,3.22
2023-04-30T16:52:09.466Z,2.83
2023-04-30T16:57:11.638Z,3.25
2023-04-30T17:02:13.965Z,2.90
2023-04-30T17:07:17.817Z,3.17
2023-04-30T17:12:20.086Z,3.42
2023-04-30T17:17:22.378Z,3.25
2023-04-30T17:22:25.368Z,3.67
2023-04-30T17:27:28.193Z,3.45
2023-04-30T17:32:30.833Z,3.25
2023-04-30T17:37:33.610Z,4.63
2023-04-30T17:42:36.099Z,4.78
2023-04-30T17:47:38.622Z,6.10
2023-04-30T17:52:41.169Z,5.95
2023-04-30T17:57:43.483Z,8.50
2023-04-30T18:02:46.296Z,9.38
2023-04-30T18:07:49.325Z,6.80
2023-04-30T18:12:53.022Z,5.03
2023-04-30T18:17:55.665Z,4.97
2023-04-30T18:22:57.933Z,5.68
2023-04-30T18:28:00.551Z,6.95
2023-04-30T18:33:06.067Z,5.57
2023-04-30T18:38:08.563Z,4.80
2023-04-30T18:43:11.075Z,3.88
2023-04-30T18:48:15.569Z,4.00
2023-04-30T18:53:18.946Z,3.60
2023-04-30T18:58:21.193Z,3.80
2023-04-30T19:03:23.482Z,4.90
2023-04-30T19:08:25.849Z,4.10
2023-04-30T19:13:28.142Z,3.60
2023-04-30T19:18:30.307Z,4.35
2023-04-30T19:23:32.692Z,3.33
2023-04-30T19:28:34.876Z,6.32
2023-04-30T19:33:39.829Z,8.90
2023-04-30T19:38:42.036Z,7.53
2023-04-30T19:43:44.228Z,6.38
2023-04-30T19:48:46.837Z,5.40
2023-04-30T19:53:49.132Z,4.57
2023-04-30T19:58:51.763Z,2.92
2023-04-30T20:03:54.175Z,4.10
2023-04-30T20:08:59.767Z,3.53
2023-04-30T20:14:02.086Z,3.55
2023-04-30T20:19:04.574Z,3.05
2023-04-30T20:24:11.351Z,3.95
2023-04-30T20:29:13.620Z,3.85
2023-04-30T20:34:15.815Z,4.28
2023-04-30T20:39:18.959Z,3.67
2023-04-30T20:44:21.092Z,3.85
2023-04-30T20:49:23.472Z,4.40
2023-04-30T20:54:26.196Z,4.07
2023-04-30T20:59:28.398Z,3.95
2023-04-30T21:04:31.461Z,4.45
2023-04-30T21:09:34.938Z,4.28
2023-04-30T21:14:37.871Z,3.67
2023-04-30T21:19:40.077Z,4.88
2023-04-30T21:24:42.872Z,4.40
2023-04-30T21:29:45.064Z,4.40
2023-04-30T21:34:47.191Z,5.18
2023-04-30T21:39:49.327Z,4.78
2023-04-30T21:44:51.528Z,4.28
2023-04-30T21:49:53.906Z,4.00
2023-04-30T21:54:56.426Z,4.47
2023-04-30T22:00:04.230Z,3.65
2023-04-30T22:05:06.868Z,3.60
2023-04-30T22:10:09.199Z,4.70
2023-04-30T22:15:12.528Z,4.15
2023-04-30T22:20:15.011Z,3.40
2023-04-30T22:25:18.171Z,4.47
2023-04-30T22:30:20.456Z,4.93
2023-04-30T22:35:23.358Z,5.43
2023-04-30T22:40:25.669Z,4.25
2023-04-30T22:45:30.553Z,4.50
2023-04-30T22:50:33.001Z,4.40
2023-04-30T22:55:36.322Z,4.00
2023-04-30T23:00:42.151Z,3.75
2023-04-30T23:05:45.015Z,4.68
2023-04-30T23:10:47.988Z,3.97
2023-04-30T23:15:53.583Z,4.30
2023-04-30T23:20:59.181Z,4.15
2023-04-30T23:26:01.936Z,3.22
2023-04-30T23:31:04.351Z,2.83
2023-04-30T23:36:06.945Z,3.40
2023-04-30T23:41:09.498Z,3.25
2023-04-30T23:46:11.854Z,3.17
2023-04-30T23:51:14.130Z,3.53
2023-04-30T23:56:17.558Z,3.33
